createdAt,value
2019-04-23T00:00:05.614Z,10.87
2019-04-23T00:00:57.047Z,10.86
2019-04-23T00:01:49.299Z,10.96
2019-04-23T00:02:50.895Z,10.90
2019-04-23T00:03:46.960Z,10.87
2019-04-23T00:04:50.928Z,10.93
2019-04-23T00:05:48.538Z,10.89
2019-04-23T00:06:59.350Z,10.92
2019-04-23T00:09:57.448Z,10.81
2019-04-23T00:10:53.667Z,10.89
2019-04-23T00:11:57.738Z,10.94
2019-04-23T00:12:54.221Z,10.90
2019-04-23T00:13:51.983Z,10.93
2019-04-23T00:15:07.534Z,10.82
2019-04-23T00:16:00.382Z,10.81
2019-04-23T00:16:49.284Z,10.76
2019-04-23T00:18:07.782Z,10.81
2019-04-23T00:19:08.330Z,10.90
2019-04-23T00:19:55.242Z,10.84
2019-04-23T00:20:57.574Z,10.89
2019-04-23T00:21:55.072Z,10.86
2019-04-23T00:23:00.734Z,10.79
2019-04-23T00:24:01.707Z,10.79
2019-04-23T00:27:01.956Z,10.76
2019-04-23T00:27:59.354Z,10.69
2019-04-23T00:29:00.507Z,10.81
2019-04-23T00:29:56.193Z,10.75
2019-04-23T00:30:55.241Z,10.78
2019-04-23T00:32:04.841Z,10.74
2019-04-23T00:32:56.094Z,10.75
2019-04-23T00:33:57.483Z,10.78
2019-04-23T00:37:01.687Z,10.76
2019-04-23T00:37:55.027Z,10.79
2019-04-23T00:38:54.263Z,10.72
2019-04-23T00:40:13.738Z,10.74
2019-04-23T00:40:59.435Z,10.78
2019-04-23T00:41:58.680Z,10.75
2019-04-23T00:42:53.291Z,10.75
2019-04-23T00:45:59.406Z,10.76
2019-04-23T00:46:55.855Z,10.79
2019-04-23T00:47:57.649Z,10.72
2019-04-23T00:49:07.415Z,10.68
2019-04-23T00:50:07.772Z,10.68
2019-04-23T00:51:11.282Z,10.67
2019-04-23T00:52:09.407Z,10.67
2019-04-23T00:52:57.666Z,10.72
2019-04-23T00:53:56.582Z,10.74
2019-04-23T00:55:09.990Z,10.64
2019-04-23T00:56:11.611Z,10.67
2019-04-23T00:57:08.460Z,10.60
2019-04-23T00:58:06.578Z,10.54
2019-04-23T00:59:00.426Z,10.69
2019-04-23T01:00:13.985Z,10.60
2019-04-23T01:01:00.437Z,10.53
2019-04-23T01:02:00.971Z,10.54
2019-04-23T01:03:05.740Z,10.61
2019-04-23T01:04:05.813Z,10.60
2019-04-23T01:05:25.021Z,10.59
2019-04-23T01:06:19.409Z,10.63
2019-04-23T01:07:04.467Z,10.59
2019-04-23T01:08:07.068Z,10.53
2019-04-23T01:09:02.623Z,10.51
2019-04-23T01:10:10.103Z,10.56
2019-04-23T01:11:03.278Z,10.61
2019-04-23T01:12:09.260Z,10.54
2019-04-23T01:13:09.575Z,10.54
2019-04-23T01:15:11.723Z,10.53
2019-04-23T01:16:05.783Z,10.54
2019-04-23T01:17:08.431Z,10.53
2019-04-23T01:18:11.279Z,10.48
2019-04-23T01:19:08.459Z,10.46
2019-04-23T01:20:14.613Z,10.54
2019-04-23T01:20:54.511Z,10.56
2019-04-23T01:21:45.537Z,10.48
2019-04-23T01:22:46.429Z,10.57
2019-04-23T01:23:53.801Z,10.56
2019-04-23T01:24:48.216Z,10.51
2019-04-23T01:25:57.746Z,10.46
2019-04-23T01:27:30.411Z,10.49
2019-04-23T01:28:07.857Z,10.59
2019-04-23T01:29:14.740Z,10.48
2019-04-23T01:31:16.552Z,10.42
2019-04-23T01:32:19.394Z,10.44
2019-04-23T01:33:21.194Z,10.48
2019-04-23T01:34:19.753Z,10.44
2019-04-23T01:36:29.735Z,10.48
2019-04-23T01:37:19.137Z,10.48
2019-04-23T01:38:11.221Z,10.49
2019-04-23T01:40:21.373Z,10.42
2019-04-23T01:42:23.992Z,10.40
2019-04-23T01:43:16.337Z,10.44
2019-04-23T01:44:21.728Z,10.53
2019-04-23T01:45:20.341Z,10.38
2019-04-23T01:46:12.844Z,10.46
2019-04-23T01:47:19.972Z,10.42
2019-04-23T01:48:13.178Z,10.46
2019-04-23T01:49:23.694Z,10.30
2019-04-23T01:50:21.847Z,10.33
2019-04-23T01:51:20.183Z,10.35
2019-04-23T01:52:27.810Z,10.30
2019-04-23T01:53:19.482Z,10.25
2019-04-23T01:54:18.924Z,10.30
2019-04-23T01:55:24.439Z,10.33
2019-04-23T01:56:19.695Z,10.34
2019-04-23T01:57:28.939Z,10.35
2019-04-23T01:58:33.540Z,10.25
2019-04-23T01:59:18.411Z,10.30
2019-04-23T02:00:22.052Z,10.35
2019-04-23T02:01:16.093Z,10.33
2019-04-23T02:02:29.676Z,10.30
2019-04-23T02:03:20.130Z,10.35
2019-04-23T02:04:24.735Z,10.30
2019-04-23T02:05:32.940Z,10.30
2019-04-23T02:06:19.880Z,10.30
2019-04-23T02:07:29.960Z,10.28
2019-04-23T02:08:20.734Z,10.35
2019-04-23T02:09:32.750Z,10.23
2019-04-23T02:10:29.550Z,10.30
2019-04-23T02:11:23.190Z,10.34
2019-04-23T02:12:30.527Z,10.33
2019-04-23T02:13:23.216Z,10.28
2019-04-23T02:14:24.453Z,10.31
2019-04-23T02:15:23.099Z,10.30
2019-04-23T02:16:25.786Z,10.30
2019-04-23T02:17:25.484Z,10.30
2019-04-23T02:18:25.025Z,10.30
2019-04-23T02:19:23.313Z,10.31
2019-04-23T02:20:32.584Z,10.30
2019-04-23T02:21:23.922Z,10.31
2019-04-23T02:22:31.691Z,10.30
2019-04-23T02:23:26.022Z,10.25
2019-04-23T02:24:29.906Z,10.31
2019-04-23T02:25:40.789Z,10.30
2019-04-23T02:26:27.727Z,10.30
2019-04-23T02:27:29.948Z,10.17
2019-04-23T02:28:31.024Z,10.17
2019-04-23T02:29:36.643Z,10.04
2019-04-23T02:30:57.812Z,10.15
2019-04-23T02:32:42.370Z,10.07
2019-04-23T02:35:50.076Z,10.20
2019-04-23T02:39:40.194Z,10.19
2019-04-23T02:40:46.464Z,10.17
2019-04-23T02:41:34.688Z,10.16
2019-04-23T02:43:01.286Z,10.23
2019-04-23T02:43:26.426Z,10.20
2019-04-23T02:44:35.036Z,10.16
2019-04-23T02:45:39.796Z,10.04
2019-04-23T02:46:40.890Z,10.04
2019-04-23T02:48:54.625Z,9.99
2019-04-23T02:49:45.890Z,9.98
2019-04-23T02:50:48.822Z,9.94
2019-04-23T02:52:37.070Z,9.97
2019-04-23T02:56:50.983Z,10.01
2019-04-23T02:57:36.929Z,9.99
2019-04-23T02:58:41.965Z,9.94
2019-04-23T02:59:58.229Z,9.99
2019-04-23T03:01:39.861Z,9.84
2019-04-23T03:02:54.759Z,9.92
2019-04-23T03:03:53.352Z,9.91
2019-04-23T03:04:42.133Z,9.89
2019-04-23T03:05:45.970Z,9.92
2019-04-23T03:09:44.754Z,9.99
2019-04-23T03:10:53.353Z,9.91
2019-04-23T03:11:57.056Z,9.97
2019-04-23T03:12:59.093Z,9.94
2019-04-23T03:14:43.721Z,9.84
2019-04-23T03:17:49.263Z,9.92
2019-04-23T03:18:46.133Z,9.97
2019-04-23T03:21:01.784Z,9.87
2019-04-23T03:22:56.105Z,9.86
2019-04-23T03:23:49.997Z,9.91
2019-04-23T03:25:45.982Z,9.82
2019-04-23T03:27:03.553Z,9.79
2019-04-23T03:27:40.883Z,9.77
2019-04-23T03:34:04.121Z,9.91
2019-04-23T03:37:49.294Z,9.87
2019-04-23T03:38:48.346Z,9.86
2019-04-23T03:40:58.965Z,9.84
2019-04-23T03:42:47.733Z,9.87
2019-04-23T03:46:49.885Z,9.83
2019-04-23T03:47:48.584Z,9.82
2019-04-23T03:48:55.146Z,9.76
2019-04-23T03:49:55.359Z,9.84
2019-04-23T03:50:43.526Z,9.89
2019-04-23T03:52:07.655Z,9.84
2019-04-23T03:53:03.388Z,9.84
2019-04-23T03:54:58.266Z,9.84
2019-04-23T03:55:58.699Z,9.79
2019-04-23T03:57:04.994Z,9.79
2019-04-23T03:59:08.029Z,9.87
2019-04-23T03:59:58.869Z,9.83
2019-04-23T04:01:57.702Z,9.89
2019-04-23T04:04:53.526Z,9.89
2019-04-23T04:06:02.246Z,9.94
2019-04-23T04:09:08.513Z,9.86
2019-04-23T04:09:53.886Z,9.95
2019-04-23T04:11:55.032Z,10.01
2019-04-23T04:14:01.660Z,9.92
2019-04-23T04:15:14.298Z,9.87
2019-04-23T04:16:00.858Z,9.91
2019-04-23T04:17:00.748Z,9.82
2019-04-23T04:18:11.763Z,9.98
2019-04-23T04:19:56.567Z,9.86
2019-04-23T04:21:03.208Z,9.95
2019-04-23T04:21:58.428Z,9.98
2019-04-23T04:23:13.426Z,9.89
2019-04-23T04:24:20.350Z,9.89
2019-04-23T04:25:02.084Z,9.95
2019-04-23T04:25:56.878Z,10.01
2019-04-23T04:27:05.741Z,10.02
2019-04-23T04:28:58.825Z,10.10
2019-04-23T04:30:00.903Z,10.01
2019-04-23T04:30:53.875Z,10.04
2019-04-23T04:32:00.280Z,10.23
2019-04-23T04:33:08.661Z,10.25
2019-04-23T04:34:10.919Z,10.31
2019-04-23T04:38:18.158Z,10.35
2019-04-23T04:38:59.080Z,10.48
2019-04-23T04:41:05.738Z,10.48
2019-04-23T04:42:06.217Z,10.68
2019-04-23T04:43:13.838Z,10.72
2019-04-23T04:44:17.134Z,10.78
2019-04-23T04:45:14.150Z,10.81
2019-04-23T04:46:58.832Z,11.04
2019-04-23T04:48:19.825Z,11.22
2019-04-23T04:49:04.876Z,11.29
2019-04-23T04:51:08.436Z,11.50
2019-04-23T04:53:19.624Z,11.88
2019-04-23T04:54:09.413Z,12.18
2019-04-23T04:55:07.607Z,12.24
2019-04-23T04:56:16.034Z,12.42
2019-04-23T04:57:17.611Z,12.70
2019-04-23T04:58:02.953Z,12.83
2019-04-23T05:00:10.399Z,13.20
2019-04-23T05:02:20.840Z,13.09
2019-04-23T05:03:18.880Z,13.35
2019-04-23T05:04:18.221Z,13.15
2019-04-23T05:05:47.840Z,12.83
2019-04-23T05:06:21.215Z,13.08
2019-04-23T05:07:11.055Z,13.39
2019-04-23T05:09:12.027Z,13.46
2019-04-23T05:11:21.583Z,13.49
2019-04-23T05:12:23.759Z,13.52
2019-04-23T05:13:23.450Z,13.78
2019-04-23T05:14:08.287Z,13.77
2019-04-23T05:15:22.144Z,13.93
2019-04-23T05:16:09.631Z,14.14
2019-04-23T05:17:16.377Z,14.41
2019-04-23T05:22:06.968Z,15.14
2019-04-23T05:23:15.842Z,15.18
2019-04-23T05:24:08.308Z,15.14
2019-04-23T05:25:04.167Z,15.57
2019-04-23T05:26:08.489Z,15.58
2019-04-23T05:27:12.331Z,15.79
2019-04-23T05:29:15.179Z,15.58
2019-04-23T05:30:14.866Z,15.55
2019-04-23T05:31:08.609Z,15.51
2019-04-23T05:32:07.594Z,15.49
2019-04-23T05:33:12.960Z,16.01
2019-04-23T05:35:09.976Z,16.28
2019-04-23T05:37:15.964Z,16.41
2019-04-23T05:38:18.548Z,16.43
2019-04-23T05:39:17.245Z,16.58
2019-04-23T05:40:27.016Z,16.58
2019-04-23T05:41:19.986Z,16.66
2019-04-23T05:42:11.202Z,16.74
2019-04-23T05:43:12.019Z,16.81
2019-04-23T05:44:15.929Z,17.02
2019-04-23T05:45:09.701Z,17.16
2019-04-23T05:46:19.822Z,17.15
2019-04-23T05:47:16.032Z,17.20
2019-04-23T05:48:19.860Z,17.01
2019-04-23T05:49:12.771Z,16.96
2019-04-23T05:50:24.276Z,16.90
2019-04-23T05:52:31.313Z,16.94
2019-04-23T05:53:11.488Z,16.76
2019-04-23T05:54:12.919Z,16.66
2019-04-23T05:55:13.709Z,16.49
2019-04-23T05:56:13.237Z,16.69
2019-04-23T05:57:28.537Z,17.04
2019-04-23T05:58:16.560Z,17.20
2019-04-23T06:00:21.292Z,17.46
2019-04-23T06:01:32.173Z,17.46
2019-04-23T06:02:13.303Z,17.49
2019-04-23T06:03:17.353Z,17.65
2019-04-23T06:04:19.175Z,17.71
2019-04-23T06:05:22.281Z,17.98
2019-04-23T06:06:25.807Z,17.78
2019-04-23T06:08:21.693Z,18.29
2019-04-23T06:09:19.172Z,17.80
2019-04-23T06:10:20.056Z,18.22
2019-04-23T06:11:26.002Z,18.18
2019-04-23T06:12:13.529Z,18.44
2019-04-23T06:13:21.017Z,18.55
2019-04-23T06:14:32.837Z,18.60
2019-04-23T06:15:20.309Z,18.66
2019-04-23T06:16:24.911Z,18.93
2019-04-23T06:18:25.199Z,18.92
2019-04-23T06:19:18.736Z,18.26
2019-04-23T06:20:38.408Z,18.60
2019-04-23T06:21:25.293Z,18.99
2019-04-23T06:23:32.612Z,19.41
2019-04-23T06:25:39.875Z,18.80
2019-04-23T06:27:27.678Z,19.36
2019-04-23T06:28:22.419Z,19.39
2019-04-23T06:29:25.580Z,19.30
2019-04-23T06:30:26.626Z,19.37
2019-04-23T06:31:24.492Z,19.67
2019-04-23T06:32:23.032Z,19.81
2019-04-23T06:33:41.408Z,19.51
2019-04-23T06:34:24.776Z,19.63
2019-04-23T06:35:23.367Z,19.21
2019-04-23T06:36:25.639Z,19.02
2019-04-23T06:37:36.175Z,18.60
2019-04-23T06:38:41.252Z,18.65
2019-04-23T06:39:23.965Z,18.08
2019-04-23T06:40:22.002Z,18.13
2019-04-23T06:42:23.502Z,17.97
2019-04-23T06:43:30.309Z,18.11
2019-04-23T06:44:28.447Z,18.25
2019-04-23T06:45:25.677Z,18.00
2019-04-23T06:46:30.688Z,17.54
2019-04-23T06:47:36.044Z,17.36
2019-04-23T06:48:30.761Z,16.99
2019-04-23T06:49:30.705Z,16.83
2019-04-23T06:50:27.104Z,16.56
2019-04-23T06:51:27.202Z,16.41
2019-04-23T06:52:21.272Z,16.36
2019-04-23T06:53:24.499Z,16.12
2019-04-23T06:54:36.444Z,15.92
2019-04-23T06:55:30.228Z,15.77
2019-04-23T06:56:35.196Z,15.47
2019-04-23T06:57:44.170Z,15.40
2019-04-23T06:59:45.932Z,15.19
2019-04-23T07:00:27.219Z,15.29
2019-04-23T07:01:27.098Z,15.25
2019-04-23T07:02:49.543Z,15.15
2019-04-23T07:03:45.314Z,14.96
2019-04-23T07:04:34.545Z,14.88
2019-04-23T07:05:30.923Z,14.68
2019-04-23T07:06:30.090Z,14.55
2019-04-23T07:07:42.529Z,14.40
2019-04-23T07:08:44.630Z,14.26
2019-04-23T07:09:35.179Z,14.30
2019-04-23T07:10:33.239Z,14.25
2019-04-23T07:12:29.787Z,14.44
2019-04-23T07:13:40.149Z,14.47
2019-04-23T07:14:38.689Z,14.44
2019-04-23T07:15:40.836Z,14.58
2019-04-23T07:17:28.991Z,14.55
2019-04-23T07:18:29.301Z,14.54
2019-04-23T07:19:39.357Z,14.25
2019-04-23T07:20:36.018Z,14.29
2019-04-23T07:21:27.992Z,14.25
2019-04-23T07:22:29.006Z,14.25
2019-04-23T07:23:37.938Z,14.25
2019-04-23T07:24:32.850Z,14.25
2019-04-23T07:25:32.760Z,14.22
2019-04-23T07:27:30.339Z,14.51
2019-04-23T07:28:39.213Z,14.53
2019-04-23T07:29:31.393Z,14.44
2019-04-23T07:30:33.251Z,14.50
2019-04-23T07:32:35.824Z,14.66
2019-04-23T07:33:45.438Z,14.55
2019-04-23T07:34:41.459Z,14.60
2019-04-23T07:35:33.266Z,14.63
2019-04-23T07:36:45.838Z,14.89
2019-04-23T07:37:40.074Z,14.77
2019-04-23T07:38:47.337Z,14.86
2019-04-23T07:40:31.954Z,14.91
2019-04-23T07:41:56.362Z,14.92
2019-04-23T07:42:51.201Z,15.07
2019-04-23T07:43:43.449Z,15.06
2019-04-23T07:44:42.547Z,15.04
2019-04-23T07:46:40.720Z,14.85
2019-04-23T07:47:33.906Z,14.73
2019-04-23T07:48:37.135Z,14.72
2019-04-23T07:49:49.340Z,14.77
2019-04-23T07:50:44.112Z,14.77
2019-04-23T07:51:46.903Z,14.77
2019-04-23T07:52:54.499Z,14.77
2019-04-23T07:53:44.023Z,14.86
2019-04-23T07:54:44.246Z,14.89
2019-04-23T07:56:42.240Z,15.04
2019-04-23T07:57:47.673Z,15.14
2019-04-23T07:58:33.522Z,15.27
2019-04-23T07:59:51.762Z,15.29
2019-04-23T08:00:45.169Z,15.40
2019-04-23T08:01:40.777Z,15.35
2019-04-23T08:03:05.592Z,15.35
2019-04-23T08:03:43.890Z,15.35
2019-04-23T08:04:56.465Z,15.43
2019-04-23T08:05:39.538Z,15.44
2019-04-23T08:06:46.352Z,15.39
2019-04-23T08:07:47.215Z,15.21
2019-04-23T08:08:41.783Z,15.22
2019-04-23T08:09:47.733Z,15.31
2019-04-23T08:12:02.557Z,15.46
2019-04-23T08:12:47.034Z,15.40
2019-04-23T08:13:53.272Z,15.31
2019-04-23T08:14:40.830Z,15.31
2019-04-23T08:15:46.629Z,15.33
2019-04-23T08:16:57.923Z,15.42
2019-04-23T08:17:43.475Z,15.52
2019-04-23T08:20:49.415Z,15.57
2019-04-23T08:21:43.958Z,15.47
2019-04-23T08:22:47.783Z,15.55
2019-04-23T08:23:49.105Z,15.58
2019-04-23T08:25:56.332Z,15.73
2019-04-23T08:27:51.506Z,15.57
2019-04-23T08:28:58.404Z,15.72
2019-04-23T08:29:44.319Z,15.73
2019-04-23T08:30:50.237Z,15.64
2019-04-23T08:31:52.391Z,15.79
2019-04-23T08:32:52.329Z,15.83
2019-04-23T08:33:56.576Z,15.76
2019-04-23T08:34:56.350Z,15.77
2019-04-23T08:35:50.659Z,15.83
2019-04-23T08:38:55.716Z,16.04
2019-04-23T08:39:46.452Z,16.13
2019-04-23T08:41:02.549Z,16.28
2019-04-23T08:42:12.567Z,16.20
2019-04-23T08:44:15.634Z,16.10
2019-04-23T08:45:05.372Z,16.12
2019-04-23T08:45:52.839Z,16.12
2019-04-23T08:47:59.178Z,16.13
2019-04-23T08:48:58.634Z,16.17
2019-04-23T08:49:50.708Z,16.16
2019-04-23T08:50:54.724Z,16.24
2019-04-23T08:52:00.254Z,16.26
2019-04-23T08:53:05.523Z,16.38
2019-04-23T08:53:56.938Z,16.33
2019-04-23T08:55:08.699Z,16.21
2019-04-23T08:57:47.057Z,16.43
2019-04-23T08:58:59.305Z,16.50
2019-04-23T08:59:56.956Z,16.60
2019-04-23T09:03:00.625Z,16.81
2019-04-23T09:03:51.274Z,16.68
2019-04-23T09:05:00.025Z,16.68
2019-04-23T09:06:10.671Z,16.76
2019-04-23T09:07:04.434Z,16.68
2019-04-23T09:08:56.944Z,16.72
2019-04-23T09:11:13.846Z,16.84
2019-04-23T09:12:16.802Z,16.89
2019-04-23T09:13:27.089Z,16.87
2019-04-23T09:13:57.407Z,16.86
2019-04-23T09:14:58.330Z,16.90
2019-04-23T09:15:59.910Z,16.87
2019-04-23T09:17:06.132Z,16.79
2019-04-23T09:18:03.031Z,16.83
2019-04-23T09:19:07.784Z,16.76
2019-04-23T09:20:57.205Z,16.96
2019-04-23T09:22:09.338Z,17.11
2019-04-23T09:22:55.491Z,17.15
2019-04-23T09:24:00.316Z,17.09
2019-04-23T09:25:05.641Z,17.01
2019-04-23T09:26:00.874Z,17.06
2019-04-23T09:27:08.691Z,17.22
2019-04-23T09:27:59.732Z,17.19
2019-04-23T09:30:08.050Z,17.19
2019-04-23T09:31:14.514Z,17.33
2019-04-23T09:33:06.829Z,17.46
2019-04-23T09:34:07.539Z,17.51
2019-04-23T09:35:15.610Z,17.57
2019-04-23T09:36:09.184Z,17.52
2019-04-23T09:37:15.218Z,17.56
2019-04-23T09:38:07.279Z,17.60
2019-04-23T09:39:07.576Z,17.67
2019-04-23T09:40:12.457Z,17.71
2019-04-23T09:41:19.917Z,17.79
2019-04-23T09:42:12.523Z,17.80
2019-04-23T09:43:06.935Z,17.76
2019-04-23T09:44:14.872Z,17.83
2019-04-23T09:45:22.733Z,17.82
2019-04-23T09:46:15.150Z,17.95
2019-04-23T09:47:28.076Z,17.98
2019-04-23T09:48:31.068Z,18.04
2019-04-23T09:50:11.072Z,17.94
2019-04-23T09:51:10.182Z,17.82
2019-04-23T09:54:11.143Z,18.05
2019-04-23T09:55:14.742Z,18.10
2019-04-23T09:56:06.813Z,18.13
2019-04-23T09:57:03.990Z,18.25
2019-04-23T09:58:10.984Z,18.26
2019-04-23T09:59:15.686Z,18.45
2019-04-23T10:00:18.455Z,18.50
2019-04-23T10:01:14.203Z,18.52
2019-04-23T10:02:04.347Z,18.53
2019-04-23T10:02:59.585Z,18.38
2019-04-23T10:03:57.636Z,18.40
2019-04-23T10:04:57.468Z,18.38
2019-04-23T10:05:53.370Z,18.43
2019-04-23T10:06:58.407Z,18.45
2019-04-23T10:07:54.303Z,18.50
2019-04-23T10:08:51.383Z,18.58
2019-04-23T10:09:47.700Z,18.65
2019-04-23T10:10:47.065Z,18.60
2019-04-23T10:11:47.150Z,18.49
2019-04-23T10:12:46.088Z,18.63
2019-04-23T10:13:46.085Z,18.60
2019-04-23T10:14:59.293Z,18.56
2019-04-23T10:15:48.518Z,18.52
2019-04-23T10:16:47.320Z,18.59
2019-04-23T10:17:47.004Z,18.62
2019-04-23T10:18:47.233Z,18.66
2019-04-23T10:19:48.648Z,18.68
2019-04-23T10:20:48.728Z,18.60
2019-04-23T10:21:49.240Z,18.60
2019-04-23T10:22:48.303Z,18.66
2019-04-23T10:23:49.604Z,18.74
2019-04-23T10:24:48.895Z,18.83
2019-04-23T10:25:49.941Z,18.83
2019-04-23T10:26:50.399Z,18.75
2019-04-23T10:27:55.042Z,18.71
2019-04-23T10:28:49.831Z,18.73
2019-04-23T10:29:50.036Z,18.86
2019-04-23T10:30:50.905Z,18.92
2019-04-23T10:31:51.365Z,19.04
2019-04-23T10:32:51.656Z,19.07
2019-04-23T10:33:52.233Z,19.21
2019-04-23T10:35:03.544Z,19.33
2019-04-23T10:35:58.417Z,19.16
2019-04-23T10:36:51.584Z,19.22
2019-04-23T10:37:58.516Z,19.18
2019-04-23T10:39:00.621Z,19.19
2019-04-23T10:39:56.664Z,19.31
2019-04-23T10:40:52.693Z,19.33
2019-04-23T10:41:54.715Z,19.19
2019-04-23T10:42:54.361Z,19.27
2019-04-23T10:43:54.926Z,19.36
2019-04-23T10:45:08.847Z,19.18
2019-04-23T10:46:17.130Z,19.19
2019-04-23T10:47:23.789Z,19.19
2019-04-23T10:48:28.083Z,19.31
2019-04-23T10:50:28.346Z,19.34
2019-04-23T10:50:31.660Z,19.30
2019-04-23T10:51:28.585Z,19.36
2019-04-23T10:53:32.902Z,19.81
2019-04-23T10:54:37.110Z,19.74
2019-04-23T10:55:25.941Z,19.82
2019-04-23T10:56:32.443Z,19.86
2019-04-23T10:57:22.776Z,19.81
2019-04-23T10:58:35.205Z,19.71
2019-04-23T10:59:28.695Z,19.70
2019-04-23T11:00:23.809Z,19.70
2019-04-23T11:01:27.998Z,19.84
2019-04-23T11:03:42.151Z,19.86
2019-04-23T11:04:45.070Z,19.94
2019-04-23T11:05:35.530Z,20.04
2019-04-23T11:06:30.674Z,20.11
2019-04-23T11:08:24.050Z,19.99
2019-04-23T11:09:42.501Z,20.14
2019-04-23T11:10:35.820Z,20.10
2019-04-23T11:11:27.542Z,20.04
2019-04-23T11:12:39.245Z,20.04
2019-04-23T11:13:35.328Z,19.99
2019-04-23T11:14:39.364Z,19.91
2019-04-23T11:17:46.574Z,20.16
2019-04-23T11:18:39.885Z,20.26
2019-04-23T11:19:56.443Z,20.36
2019-04-23T11:22:42.304Z,20.28
2019-04-23T11:23:29.097Z,20.31
2019-04-23T11:26:34.566Z,20.41
2019-04-23T11:27:35.030Z,20.58
2019-04-23T11:28:33.336Z,20.59
2019-04-23T11:30:36.205Z,20.60
2019-04-23T11:31:37.026Z,20.50
2019-04-23T11:32:53.840Z,20.56
2019-04-23T11:33:53.876Z,20.51
2019-04-23T11:34:56.977Z,20.37
2019-04-23T11:35:40.115Z,20.29
2019-04-23T11:37:54.706Z,20.41
2019-04-23T11:39:39.839Z,20.44
2019-04-23T11:40:35.624Z,20.52
2019-04-23T11:41:48.371Z,20.43
2019-04-23T11:42:38.886Z,20.52
2019-04-23T11:43:38.033Z,20.55
2019-04-23T11:51:05.832Z,20.60
2019-04-23T11:51:10.442Z,20.51
2019-04-23T11:52:41.528Z,20.59
2019-04-23T11:54:38.990Z,20.81
2019-04-23T11:55:52.807Z,20.90
2019-04-23T11:57:13.016Z,20.99
2019-04-23T11:59:55.709Z,20.92
2019-04-23T12:01:03.154Z,20.99
2019-04-23T12:01:48.677Z,20.96
2019-04-23T12:02:46.972Z,20.96
2019-04-23T12:03:47.345Z,20.95
2019-04-23T12:04:57.581Z,20.96
2019-04-23T12:05:59.838Z,20.99
2019-04-23T12:06:44.432Z,21.00
2019-04-23T12:07:41.222Z,20.92
2019-04-23T12:10:47.942Z,20.88
2019-04-23T12:11:52.775Z,21.05
2019-04-23T12:12:55.536Z,21.09
2019-04-23T12:13:44.755Z,21.17
2019-04-23T12:14:54.247Z,21.20
2019-04-23T12:16:49.136Z,21.42
2019-04-23T12:17:44.201Z,21.27
2019-04-23T12:18:51.461Z,21.39
2019-04-23T12:20:39.729Z,21.30
2019-04-23T12:21:43.902Z,21.48
2019-04-23T12:22:51.842Z,21.32
2019-04-23T12:25:02.287Z,21.55
2019-04-23T12:26:03.708Z,21.43
2019-04-23T12:26:56.365Z,21.55
2019-04-23T12:27:39.279Z,21.58
2019-04-23T12:28:57.642Z,21.50
2019-04-23T12:30:45.230Z,21.70
2019-04-23T12:31:53.640Z,21.76
2019-04-23T12:33:52.282Z,21.98
2019-04-23T12:34:52.936Z,22.04
2019-04-23T12:35:40.420Z,22.15
2019-04-23T12:36:46.807Z,22.10
2019-04-23T12:37:44.944Z,22.28
2019-04-23T12:38:49.263Z,22.20
2019-04-23T12:39:56.739Z,22.17
2019-04-23T12:40:43.155Z,22.41
2019-04-23T12:41:50.825Z,22.30
2019-04-23T12:43:02.692Z,22.38
2019-04-23T12:43:50.590Z,22.26
2019-04-23T12:44:56.363Z,22.22
2019-04-23T12:45:43.970Z,22.32
2019-04-23T12:46:54.199Z,22.18
2019-04-23T12:48:08.190Z,22.30
2019-04-23T12:48:58.749Z,22.30
2019-04-23T12:50:13.489Z,22.32
2019-04-23T12:52:57.303Z,22.54
2019-04-23T12:53:52.504Z,22.60
2019-04-23T12:57:09.077Z,22.70
2019-04-23T12:58:46.714Z,22.87
2019-04-23T12:59:49.763Z,22.87
2019-04-23T13:00:55.365Z,22.85
2019-04-23T13:01:57.591Z,22.83
2019-04-23T13:02:52.458Z,22.87
2019-04-23T13:03:45.990Z,22.60
2019-04-23T13:04:51.809Z,22.65
2019-04-23T13:05:54.062Z,22.69
2019-04-23T13:06:56.308Z,22.69
2019-04-23T13:07:52.023Z,22.66
2019-04-23T13:08:51.532Z,22.62
2019-04-23T13:10:01.605Z,22.69
2019-04-23T13:10:59.059Z,22.60
2019-04-23T13:11:57.823Z,22.69
2019-04-23T13:13:03.926Z,22.68
2019-04-23T13:13:58.677Z,22.69
2019-04-23T13:14:57.624Z,22.63
2019-04-23T13:15:53.682Z,22.73
2019-04-23T13:17:05.484Z,22.65
2019-04-23T13:19:01.385Z,22.57
2019-04-23T13:20:49.638Z,22.73
2019-04-23T13:23:54.712Z,22.78
2019-04-23T13:25:05.331Z,22.72
2019-04-23T13:26:54.885Z,22.91
2019-04-23T13:29:04.957Z,22.84
2019-04-23T13:30:11.827Z,22.90
2019-04-23T13:30:59.470Z,22.93
2019-04-23T13:32:00.829Z,22.91
2019-04-23T13:33:07.994Z,22.91
2019-04-23T13:33:58.099Z,22.83
2019-04-23T13:35:08.434Z,22.91
2019-04-23T13:37:00.486Z,23.12
2019-04-23T13:38:10.588Z,23.13
2019-04-23T13:38:57.187Z,23.34
2019-04-23T13:40:00.465Z,23.31
2019-04-23T13:42:06.219Z,23.21
2019-04-23T13:43:14.936Z,23.18
2019-04-23T13:43:52.628Z,23.09
2019-04-23T13:45:04.956Z,23.09
2019-04-23T13:47:10.556Z,23.15
2019-04-23T13:48:06.284Z,23.21
2019-04-23T13:49:03.121Z,23.18
2019-04-23T13:50:07.778Z,23.31
2019-04-23T13:51:14.724Z,23.25
2019-04-23T13:53:20.973Z,23.46
2019-04-23T13:54:13.861Z,23.41
2019-04-23T13:56:01.934Z,23.36
2019-04-23T13:57:33.369Z,23.37
2019-04-23T13:58:21.593Z,23.39
2019-04-23T14:00:11.554Z,23.56
2019-04-23T14:01:18.203Z,23.69
2019-04-23T14:02:16.961Z,23.58
2019-04-23T14:03:04.473Z,23.63
2019-04-23T14:04:14.121Z,23.63
2019-04-23T14:05:06.275Z,23.66
2019-04-23T14:07:19.880Z,23.66
2019-04-23T14:08:16.501Z,23.66
2019-04-23T14:09:20.150Z,23.65
2019-04-23T14:11:14.017Z,23.71
2019-04-23T14:12:10.725Z,23.80
2019-04-23T14:13:28.718Z,23.80
2019-04-23T14:14:15.145Z,23.69
2019-04-23T14:15:09.925Z,23.81
2019-04-23T14:16:22.779Z,23.81
2019-04-23T14:17:29.752Z,23.74
2019-04-23T14:18:27.376Z,23.87
2019-04-23T14:19:04.043Z,23.83
2019-04-23T14:20:16.358Z,23.98
2019-04-23T14:22:33.767Z,23.83
2019-04-23T14:23:12.890Z,23.95
2019-04-23T14:24:16.685Z,23.93
2019-04-23T14:25:10.147Z,23.86
2019-04-23T14:27:17.968Z,23.84
2019-04-23T14:29:16.871Z,24.11
2019-04-23T14:30:24.206Z,24.16
2019-04-23T14:31:13.480Z,24.21
2019-04-23T14:32:15.638Z,24.26
2019-04-23T14:33:17.398Z,24.20
2019-04-23T14:34:11.522Z,24.30
2019-04-23T14:36:17.784Z,24.45
2019-04-23T14:38:30.614Z,24.65
2019-04-23T14:39:18.534Z,24.70
2019-04-23T14:40:23.944Z,24.69
2019-04-23T14:44:12.903Z,24.77
2019-04-23T14:44:18.567Z,24.69
2019-04-23T14:45:29.304Z,24.61
2019-04-23T14:47:25.978Z,24.77
2019-04-23T14:48:27.918Z,24.80
2019-04-23T14:49:20.559Z,24.76
2019-04-23T14:51:24.086Z,24.58
2019-04-23T14:52:21.963Z,24.65
2019-04-23T14:53:19.412Z,24.69
2019-04-23T14:54:23.408Z,24.57
2019-04-23T14:57:24.695Z,24.60
2019-04-23T14:59:14.949Z,24.74
2019-04-23T15:00:28.634Z,24.81
2019-04-23T15:01:33.578Z,24.65
2019-04-23T15:02:28.779Z,24.54
2019-04-23T15:03:28.778Z,24.48
2019-04-23T15:04:19.156Z,24.32
2019-04-23T15:05:25.749Z,24.35
2019-04-23T15:06:31.591Z,24.23
2019-04-23T15:07:27.950Z,24.39
2019-04-23T15:08:32.517Z,24.30
2019-04-23T15:10:26.356Z,24.18
2019-04-23T15:11:29.521Z,24.20
2019-04-23T15:12:30.120Z,24.28
2019-04-23T15:13:23.173Z,24.39
2019-04-23T15:14:23.433Z,24.39
2019-04-23T15:16:31.611Z,24.42
2019-04-23T15:18:39.145Z,24.40
2019-04-23T15:19:40.332Z,24.26
2019-04-23T15:20:22.889Z,24.23
2019-04-23T15:24:25.984Z,24.30
2019-04-23T15:25:36.884Z,24.28
2019-04-23T15:28:07.546Z,24.26
2019-04-23T15:29:12.991Z,24.20
2019-04-23T15:30:21.220Z,24.17
2019-04-23T15:32:35.087Z,24.17
2019-04-23T15:34:23.704Z,24.26
2019-04-23T15:35:55.554Z,24.13
2019-04-23T15:37:42.983Z,23.84
2019-04-23T15:38:43.597Z,23.78
2019-04-23T15:39:42.646Z,23.74
2019-04-23T15:40:25.274Z,23.88
2019-04-23T15:41:49.033Z,23.69
2019-04-23T15:42:52.021Z,23.66
2019-04-23T15:43:30.781Z,23.76
2019-04-23T15:44:23.088Z,23.61
2019-04-23T15:45:32.631Z,23.62
2019-04-23T15:46:35.466Z,23.63
2019-04-23T15:47:32.296Z,23.61
2019-04-23T15:48:33.603Z,23.58
2019-04-23T15:50:37.959Z,23.58
2019-04-23T15:51:35.606Z,23.62
2019-04-23T15:52:44.481Z,23.69
2019-04-23T15:53:25.024Z,23.66
2019-04-23T15:54:35.695Z,23.54
2019-04-23T15:55:34.471Z,23.44
2019-04-23T15:56:44.508Z,23.54
2019-04-23T15:57:56.212Z,23.41
2019-04-23T15:58:46.534Z,23.50
2019-04-23T15:59:43.953Z,23.56
2019-04-23T16:00:29.426Z,23.61
2019-04-23T16:01:39.440Z,23.54